createdAt,value
2018-06-05T00:01:10.808Z,14.85
2018-06-05T00:03:38.851Z,15.30
2018-06-05T00:06:06.904Z,15.93
2018-06-05T00:08:34.945Z,19.32
2018-06-05T00:11:02.996Z,16.40
2018-06-05T00:13:31.041Z,14.23
2018-06-05T00:15:59.097Z,14.23
2018-06-05T00:18:27.136Z,16.85
2018-06-05T00:20:55.173Z,16.27
2018-06-05T00:23:23.217Z,16.37
2018-06-05T00:25:51.256Z,14.90
2018-06-05T00:28:19.309Z,19.10
2018-06-05T00:30:47.354Z,17.87
2018-06-05T00:33:15.432Z,17.85
2018-06-05T00:35:43.501Z,18.85
2018-06-05T00:38:11.574Z,18.62
2018-06-05T00:40:39.645Z,24.60
2018-06-05T00:43:07.580Z,17.37
2018-06-05T00:45:35.668Z,14.30
2018-06-05T00:48:03.734Z,13.80
2018-06-05T00:50:31.806Z,15.40
2018-06-05T00:52:59.876Z,14.00
2018-06-05T00:55:27.936Z,14.07
2018-06-05T00:57:55.992Z,16.67
2018-06-05T01:00:24.058Z,15.68
2018-06-05T01:02:52.121Z,14.10
2018-06-05T01:05:20.189Z,15.20
2018-06-05T01:07:48.260Z,17.40
2018-06-05T01:10:16.315Z,15.75
2018-06-05T01:12:44.388Z,15.88
2018-06-05T01:15:12.450Z,14.83
2018-06-05T01:17:40.516Z,16.57
2018-06-05T01:20:08.574Z,21.95
2018-06-05T01:22:36.641Z,20.05
2018-06-05T01:25:04.711Z,18.82
2018-06-05T01:27:32.789Z,19.07
2018-06-05T01:30:00.865Z,22.37
2018-06-05T01:32:28.912Z,17.40
2018-06-05T01:34:56.961Z,18.00
2018-06-05T01:37:25.009Z,19.23
2018-06-05T01:39:53.063Z,15.60
2018-06-05T01:42:21.101Z,17.90
2018-06-05T01:44:49.148Z,20.75
2018-06-05T01:47:17.212Z,17.37
2018-06-05T01:49:45.256Z,20.60
2018-06-05T01:52:13.304Z,14.60
2018-06-05T01:54:41.377Z,17.32
2018-06-05T01:57:09.428Z,17.52
2018-06-05T01:59:37.480Z,22.70
2018-06-05T02:02:05.530Z,20.88
2018-06-05T02:04:33.572Z,18.82
2018-06-05T02:07:01.617Z,22.13
2018-06-05T02:09:29.668Z,23.05
2018-06-05T02:11:57.701Z,19.82
2018-06-05T02:14:25.758Z,19.42
2018-06-05T02:16:53.796Z,21.73
2018-06-05T02:19:21.845Z,18.05
2018-06-05T02:21:49.898Z,20.48
2018-06-05T02:24:17.945Z,22.30
2018-06-05T02:26:45.997Z,20.60
2018-06-05T02:29:14.041Z,20.35
2018-06-05T02:31:42.097Z,19.80
2018-06-05T02:34:10.159Z,25.70
2018-06-05T02:36:38.192Z,19.10
2018-06-05T02:39:07.097Z,22.90
2018-06-05T02:41:35.194Z,21.68
2018-06-05T02:44:03.221Z,18.75
2018-06-05T02:46:31.268Z,22.13
2018-06-05T02:48:59.318Z,22.15
2018-06-05T02:51:27.357Z,20.82
2018-06-05T02:53:55.412Z,22.10
2018-06-05T02:56:23.448Z,20.10
2018-06-05T02:58:51.500Z,23.80
2018-06-05T03:01:19.541Z,20.23
2018-06-05T03:03:47.589Z,24.25
2018-06-05T03:06:15.636Z,22.80
2018-06-05T03:08:43.684Z,21.37
2018-06-05T03:11:11.987Z,25.45
2018-06-05T03:13:40.032Z,22.20
2018-06-05T03:16:08.082Z,24.63
2018-06-05T03:18:36.132Z,23.55
2018-06-05T03:21:04.216Z,27.67
2018-06-05T03:23:32.269Z,26.82
2018-06-05T03:26:00.304Z,27.65
2018-06-05T03:28:28.353Z,29.75
2018-06-05T03:30:56.400Z,27.87
2018-06-05T03:33:24.456Z,22.70
2018-06-05T03:35:52.530Z,23.98
2018-06-05T03:38:20.580Z,27.80
2018-06-05T03:40:48.662Z,26.75
2018-06-05T03:43:16.680Z,32.35
2018-06-05T03:45:44.730Z,28.98
2018-06-05T03:48:12.783Z,25.05
2018-06-05T03:50:40.836Z,29.75
2018-06-05T03:53:08.885Z,26.02
2018-06-05T03:55:36.952Z,28.73
2018-06-05T03:58:05.039Z,24.37
2018-06-05T04:00:33.075Z,21.15
2018-06-05T04:03:01.124Z,25.25
2018-06-05T04:05:29.169Z,31.97
2018-06-05T04:07:57.228Z,28.57
2018-06-05T04:10:25.279Z,24.90
2018-06-05T04:12:53.330Z,30.55
2018-06-05T04:15:21.380Z,26.12
2018-06-05T04:17:49.428Z,26.97
2018-06-05T04:20:17.481Z,30.82
2018-06-05T04:22:46.337Z,24.75
2018-06-05T04:25:14.393Z,29.80
2018-06-05T04:27:42.439Z,27.85
2018-06-05T04:30:10.488Z,24.72
2018-06-05T04:32:38.581Z,26.05
2018-06-05T04:35:06.657Z,26.93
2018-06-05T04:37:34.736Z,23.40
2018-06-05T04:40:02.809Z,28.45
2018-06-05T04:42:30.868Z,22.98
2018-06-05T04:44:58.988Z,26.15
2018-06-05T04:47:27.045Z,26.40
2018-06-05T04:49:55.116Z,23.35
2018-06-05T04:52:23.173Z,28.20
2018-06-05T04:54:51.245Z,34.65
2018-06-05T04:57:19.312Z,37.13
2018-06-05T04:59:47.381Z,31.25
2018-06-05T05:02:15.448Z,30.23
2018-06-05T05:04:43.521Z,26.57
2018-06-05T05:07:11.589Z,32.58
2018-06-05T05:09:39.671Z,29.87
2018-06-05T05:12:07.773Z,30.43
2018-06-05T05:14:35.801Z,31.10
2018-06-05T05:17:03.864Z,29.85
2018-06-05T05:19:31.924Z,28.85
2018-06-05T05:21:59.992Z,30.80
2018-06-05T05:24:28.062Z,31.25
2018-06-05T05:26:56.132Z,34.15
2018-06-05T05:29:24.199Z,31.20
2018-06-05T05:31:52.254Z,35.08
2018-06-05T05:34:20.300Z,29.42
2018-06-05T05:36:48.341Z,33.42
2018-06-05T05:39:16.451Z,37.50
2018-06-05T05:41:44.304Z,39.25
2018-06-05T05:44:12.361Z,26.48
2018-06-05T05:46:40.412Z,28.83
2018-06-05T05:49:08.465Z,24.63
2018-06-05T05:51:36.521Z,29.18
2018-06-05T05:54:04.561Z,25.20
2018-06-05T05:56:32.617Z,29.60
2018-06-05T05:59:00.657Z,28.45
2018-06-05T06:01:28.700Z,33.55
2018-06-05T06:03:56.748Z,31.20
2018-06-05T06:06:24.853Z,32.70
2018-06-05T06:08:52.901Z,30.75
2018-06-05T06:11:20.948Z,31.10
2018-06-05T06:13:49.001Z,28.07
2018-06-05T06:16:17.059Z,30.10
2018-06-05T06:18:45.095Z,30.92
2018-06-05T06:21:13.132Z,27.07
2018-06-05T06:23:41.185Z,25.12
2018-06-05T06:26:09.233Z,27.32
2018-06-05T06:28:37.345Z,25.25
2018-06-05T06:31:05.396Z,20.72
2018-06-05T06:33:33.460Z,20.32
2018-06-05T06:36:01.532Z,18.23
2018-06-05T06:38:29.628Z,21.52
2018-06-05T06:40:57.661Z,22.60
2018-06-05T06:43:25.733Z,17.02
2018-06-05T06:45:53.795Z,21.70
2018-06-05T06:48:21.864Z,25.10
2018-06-05T06:50:49.950Z,20.27
2018-06-05T06:53:18.021Z,19.92
2018-06-05T06:55:46.100Z,17.05
2018-06-05T06:58:14.179Z,19.17
2018-06-05T07:00:42.239Z,18.12
2018-06-05T07:03:10.316Z,18.40
2018-06-05T07:05:38.395Z,18.60
2018-06-05T07:08:06.508Z,15.65
2018-06-05T07:10:34.581Z,17.92
2018-06-05T07:13:02.669Z,20.77
2018-06-05T07:15:30.752Z,17.02
2018-06-05T07:17:58.828Z,17.92
2018-06-05T07:20:26.906Z,21.02
2018-06-05T07:22:54.980Z,18.52
2018-06-05T07:25:23.056Z,20.60
2018-06-05T07:27:51.137Z,17.92
2018-06-05T07:30:19.237Z,23.98
2018-06-05T07:32:47.257Z,23.87
2018-06-05T07:35:15.305Z,17.98
2018-06-05T07:37:43.353Z,21.25
2018-06-05T07:40:11.396Z,21.60
2018-06-05T07:42:39.449Z,20.37
2018-06-05T07:45:07.505Z,24.07
2018-06-05T07:47:35.556Z,22.80
2018-06-05T07:50:03.639Z,27.90
2018-06-05T07:52:31.652Z,22.45
2018-06-05T07:54:59.704Z,26.00
2018-06-05T07:57:27.765Z,29.63
2018-06-05T07:59:55.808Z,20.23
2018-06-05T08:02:23.862Z,21.25
2018-06-05T08:04:51.904Z,28.50
2018-06-05T08:07:19.956Z,21.07
2018-06-05T08:09:47.996Z,20.12
2018-06-05T08:12:16.048Z,17.65
2018-06-05T08:14:44.108Z,18.65
2018-06-05T08:17:12.152Z,21.52
2018-06-05T08:19:40.200Z,22.40
2018-06-05T08:22:08.256Z,23.18
2018-06-05T08:24:36.302Z,21.60
2018-06-05T08:27:04.372Z,18.95
2018-06-05T08:29:32.421Z,18.57
2018-06-05T08:32:00.492Z,18.67
2018-06-05T08:34:28.561Z,19.48
2018-06-05T08:36:56.609Z,17.67
2018-06-05T08:39:24.551Z,17.12
2018-06-05T08:41:52.600Z,19.65
2018-06-05T08:44:20.654Z,20.12
2018-06-05T08:46:48.706Z,17.98
2018-06-05T08:49:16.747Z,26.70
2018-06-05T08:51:44.792Z,20.35
2018-06-05T08:54:12.882Z,17.27
2018-06-05T08:56:40.922Z,16.65
2018-06-05T08:59:08.976Z,17.95
2018-06-05T09:01:37.028Z,19.15
2018-06-05T09:04:05.080Z,16.07
2018-06-05T09:06:33.120Z,17.40
2018-06-05T09:09:01.184Z,19.90
2018-06-05T09:11:29.223Z,17.87
2018-06-05T09:13:57.364Z,18.62
2018-06-05T09:16:25.417Z,20.60
2018-06-05T09:18:53.464Z,17.37
2018-06-05T09:21:21.508Z,17.55
2018-06-05T09:23:49.560Z,17.20
2018-06-05T09:26:17.604Z,19.17
2018-06-05T09:28:45.660Z,24.47
2018-06-05T09:31:13.700Z,17.07
2018-06-05T09:33:41.764Z,15.60
2018-06-05T09:36:09.812Z,18.35
2018-06-05T09:38:37.867Z,17.07
2018-06-05T09:41:05.919Z,15.03
2018-06-05T09:43:33.972Z,16.75
2018-06-05T09:46:01.924Z,19.40
2018-06-05T09:48:30.030Z,16.67
2018-06-05T09:50:58.077Z,14.95
2018-06-05T09:53:26.123Z,17.50
2018-06-05T09:55:54.327Z,15.53
2018-06-05T09:58:22.658Z,21.77
2018-06-05T10:00:51.653Z,15.50
2018-06-05T10:03:20.907Z,23.45
2018-06-05T10:05:48.980Z,16.10
2018-06-05T10:08:17.064Z,19.05
2018-06-05T10:10:45.148Z,23.55
2018-06-05T10:13:13.209Z,18.40
2018-06-05T10:15:41.253Z,17.12
2018-06-05T10:18:09.306Z,16.10
2018-06-05T10:20:37.349Z,18.73
2018-06-05T10:23:05.789Z,17.30
2018-06-05T10:25:33.841Z,21.35
2018-06-05T10:28:01.914Z,13.05
2018-06-05T10:30:29.944Z,15.72
2018-06-05T10:32:58.021Z,15.32
2018-06-05T10:35:26.305Z,16.37
2018-06-05T10:37:54.364Z,17.87
2018-06-05T10:40:22.448Z,15.78
2018-06-05T10:42:50.516Z,16.15
2018-06-05T10:45:18.584Z,14.43
2018-06-05T10:47:46.664Z,14.05
2018-06-05T10:50:14.734Z,14.00
2018-06-05T10:52:42.792Z,13.93
2018-06-05T10:55:10.865Z,14.23
2018-06-05T10:57:38.937Z,12.80
2018-06-05T11:00:07.013Z,13.03
2018-06-05T11:02:35.072Z,13.78
2018-06-05T11:05:03.148Z,13.10
2018-06-05T11:07:31.209Z,17.23
2018-06-05T11:09:59.291Z,11.85
2018-06-05T11:12:27.353Z,11.25
2018-06-05T11:14:55.628Z,12.25
2018-06-05T11:17:23.702Z,11.20
2018-06-05T11:19:51.774Z,12.13
2018-06-05T11:22:19.837Z,9.30
2018-06-05T11:24:48.458Z,10.08
2018-06-05T11:27:16.575Z,10.72
2018-06-05T11:29:44.713Z,12.65
2018-06-05T11:32:12.756Z,8.10
2018-06-05T11:34:40.812Z,10.23
2018-06-05T11:37:08.849Z,15.08
2018-06-05T11:39:36.904Z,12.28
2018-06-05T11:42:05.204Z,8.10
2018-06-05T11:44:33.263Z,10.28
2018-06-05T11:47:01.788Z,10.13
2018-06-05T11:49:29.806Z,10.85
2018-06-05T11:51:57.850Z,8.48
2018-06-05T11:54:25.893Z,10.08
2018-06-05T11:56:53.948Z,11.25
2018-06-05T11:59:21.997Z,8.00
2018-06-05T12:01:50.073Z,8.53
2018-06-05T12:04:18.096Z,9.08
2018-06-05T12:06:46.145Z,7.40
2018-06-05T12:09:14.184Z,9.30
2018-06-05T12:11:42.236Z,8.43
2018-06-05T12:14:10.285Z,9.78
2018-06-05T12:16:38.339Z,8.08
2018-06-05T12:19:06.385Z,13.50
2018-06-05T12:21:34.437Z,20.27
2018-06-05T12:24:02.481Z,9.30
2018-06-05T12:26:30.527Z,7.20
2018-06-05T12:28:58.572Z,8.18
2018-06-05T12:31:26.621Z,7.75
2018-06-05T12:33:54.660Z,11.10
2018-06-05T12:36:22.722Z,7.20
2018-06-05T12:38:50.760Z,9.30
2018-06-05T12:41:18.804Z,10.78
2018-06-05T12:43:46.848Z,6.53
2018-06-05T12:46:14.904Z,8.93
2018-06-05T12:48:42.961Z,10.35
2018-06-05T12:51:11.006Z,8.85
2018-06-05T12:53:39.040Z,7.35
2018-06-05T12:56:07.102Z,7.00
2018-06-05T12:58:35.152Z,7.45
2018-06-05T13:01:03.196Z,18.98
2018-06-05T13:03:31.248Z,7.17
2018-06-05T13:05:59.301Z,7.58
2018-06-05T13:08:27.365Z,6.25
2018-06-05T13:10:55.423Z,6.10
2018-06-05T13:13:23.521Z,8.53
2018-06-05T13:15:51.593Z,9.75
2018-06-05T13:18:19.640Z,7.40
2018-06-05T13:20:47.872Z,6.97
2018-06-05T13:23:15.927Z,6.45
2018-06-05T13:25:43.960Z,7.22
2018-06-05T13:28:11.875Z,9.30
2018-06-05T13:30:40.033Z,6.55
2018-06-05T13:33:08.107Z,8.50
2018-06-05T13:35:36.180Z,14.33
2018-06-05T13:38:04.244Z,8.68
2018-06-05T13:40:32.328Z,12.18
2018-06-05T13:43:00.405Z,6.42
2018-06-05T13:45:28.663Z,9.90
2018-06-05T13:47:56.704Z,6.83
2018-06-05T13:50:24.764Z,8.75
2018-06-05T13:52:52.830Z,6.75
2018-06-05T13:55:20.897Z,7.78
2018-06-05T13:57:48.958Z,8.35
2018-06-05T14:00:16.885Z,10.58
2018-06-05T14:02:45.485Z,6.55
2018-06-05T14:05:13.552Z,10.15
2018-06-05T14:07:41.620Z,6.72
2018-06-05T14:10:09.689Z,6.00
2018-06-05T14:12:37.760Z,10.03
2018-06-05T14:15:05.824Z,7.65
2018-06-05T14:17:33.884Z,8.53
2018-06-05T14:20:01.987Z,7.37
2018-06-05T14:22:30.052Z,9.33
2018-06-05T14:24:58.103Z,5.87
2018-06-05T14:27:26.163Z,9.10
2018-06-05T14:29:54.232Z,6.90
2018-06-05T14:32:22.309Z,9.58
2018-06-05T14:34:50.369Z,7.08
2018-06-05T14:37:18.437Z,6.70
2018-06-05T14:39:46.500Z,7.00
2018-06-05T14:42:14.565Z,7.42
2018-06-05T14:44:42.638Z,6.45
2018-06-05T14:47:10.702Z,8.78
2018-06-05T14:49:38.768Z,6.58
2018-06-05T14:52:06.820Z,9.38
2018-06-05T14:54:34.889Z,6.30
2018-06-05T14:57:02.948Z,8.90
2018-06-05T14:59:31.025Z,7.53
2018-06-05T15:01:59.089Z,10.28
2018-06-05T15:04:27.207Z,10.13
2018-06-05T15:06:55.270Z,8.08
2018-06-05T15:09:23.341Z,9.95
2018-06-05T15:11:51.408Z,11.83
2018-06-05T15:14:19.478Z,10.78
2018-06-05T15:16:47.544Z,8.10
2018-06-05T15:19:15.612Z,16.17
2018-06-05T15:21:43.676Z,5.20
2018-06-05T15:24:12.052Z,5.37
2018-06-05T15:26:40.172Z,6.15
2018-06-05T15:29:08.237Z,6.78
2018-06-05T15:31:42.733Z,8.08
2018-06-05T15:34:10.782Z,7.70
2018-06-05T15:36:38.812Z,8.60
2018-06-05T15:39:08.086Z,5.78
2018-06-05T15:41:36.448Z,12.55
2018-06-05T15:44:04.615Z,7.17
2018-06-05T15:46:32.648Z,5.33
2018-06-05T15:49:00.683Z,6.10
2018-06-05T15:51:28.724Z,9.28
2018-06-05T15:53:56.765Z,5.78
2018-06-05T15:56:24.813Z,5.97
2018-06-05T15:58:52.849Z,6.28
2018-06-05T16:01:20.900Z,6.33
2018-06-05T16:03:48.945Z,5.80
2018-06-05T16:06:17.000Z,11.22
2018-06-05T16:08:45.188Z,6.20
2018-06-05T16:11:13.252Z,7.92
2018-06-05T16:13:41.301Z,6.87
2018-06-05T16:16:09.341Z,8.93
2018-06-05T16:18:37.401Z,5.20
2018-06-05T16:21:05.465Z,5.50
2018-06-05T16:23:33.511Z,6.15
2018-06-05T16:26:01.553Z,6.08
2018-06-05T16:28:29.599Z,6.47
2018-06-05T16:30:57.642Z,5.85
2018-06-05T16:33:25.757Z,5.97
2018-06-05T16:35:53.732Z,6.97
2018-06-05T16:38:21.778Z,8.55
2018-06-05T16:40:49.816Z,5.97
2018-06-05T16:43:17.859Z,6.35
2018-06-05T16:45:45.949Z,7.17
2018-06-05T16:48:14.017Z,6.55
2018-06-05T16:50:42.436Z,7.00
2018-06-05T16:53:10.498Z,8.23
2018-06-05T16:55:38.543Z,10.55
2018-06-05T16:58:06.596Z,5.78
2018-06-05T17:00:34.632Z,7.92
2018-06-05T17:03:02.672Z,4.75
2018-06-05T17:05:30.715Z,12.60
2018-06-05T17:07:58.753Z,4.25
2018-06-05T17:10:26.809Z,9.33
2018-06-05T17:12:54.854Z,5.53
2018-06-05T17:15:22.896Z,6.92
2018-06-05T17:17:50.932Z,6.95
2018-06-05T17:20:19.176Z,5.95
2018-06-05T17:22:47.565Z,7.05
2018-06-05T17:25:15.613Z,8.50
2018-06-05T17:27:43.658Z,3.80
2018-06-05T17:30:11.705Z,4.15
2018-06-05T17:32:39.800Z,3.95
2018-06-05T17:35:07.790Z,5.80
2018-06-05T17:37:35.836Z,14.75
2018-06-05T17:40:03.916Z,3.70
2018-06-05T17:42:31.958Z,5.78
2018-06-05T17:45:00.341Z,4.15
2018-06-05T17:47:28.380Z,3.35
2018-06-05T17:49:56.432Z,9.00
2018-06-05T17:52:24.552Z,5.00
2018-06-05T17:54:52.592Z,17.62
2018-06-05T17:57:20.633Z,3.70
2018-06-05T17:59:48.676Z,11.73
2018-06-05T18:02:16.720Z,5.90
2018-06-05T18:04:44.773Z,3.80
2018-06-05T18:07:12.808Z,4.28
2018-06-05T18:09:40.864Z,8.58
2018-06-05T18:12:08.910Z,4.03
2018-06-05T18:14:36.954Z,14.25
2018-06-05T18:17:05.030Z,5.42
2018-06-05T18:19:33.080Z,5.62
2018-06-05T18:22:01.142Z,9.00
2018-06-05T18:24:29.159Z,7.08
2018-06-05T18:26:57.232Z,5.83
2018-06-05T18:29:25.323Z,6.25
2018-06-05T18:31:53.321Z,10.60
2018-06-05T18:34:21.364Z,5.92
2018-06-05T18:36:49.396Z,5.65
2018-06-05T18:39:17.440Z,4.45
2018-06-05T18:41:45.481Z,6.28
2018-06-05T18:44:13.526Z,7.10
2018-06-05T18:46:41.557Z,7.50
2018-06-05T18:49:09.605Z,8.08
2018-06-05T18:51:37.632Z,6.72
2018-06-05T18:54:05.697Z,7.15
2018-06-05T18:56:33.732Z,5.97
2018-06-05T18:59:01.776Z,7.37
2018-06-05T19:01:29.813Z,7.55
2018-06-05T19:03:57.877Z,6.47
2018-06-05T19:06:25.900Z,8.58
2018-06-05T19:08:53.821Z,9.60
2018-06-05T19:11:21.857Z,12.95
2018-06-05T19:13:49.893Z,11.65
2018-06-05T19:16:17.932Z,10.50
2018-06-05T19:18:45.989Z,14.33
2018-06-05T19:21:14.042Z,13.18
2018-06-05T19:23:42.080Z,13.35
2018-06-05T19:26:10.129Z,16.42
2018-06-05T19:28:38.202Z,20.50
2018-06-05T19:31:06.276Z,13.95
2018-06-05T19:33:34.318Z,16.70
2018-06-05T19:36:02.352Z,19.62
2018-06-05T19:38:30.392Z,14.35
2018-06-05T19:40:58.445Z,12.53
2018-06-05T19:43:26.485Z,13.58
2018-06-05T19:45:54.539Z,14.10
2018-06-05T19:48:22.586Z,15.10
2018-06-05T19:50:50.639Z,12.25
2018-06-05T19:53:18.679Z,14.68
2018-06-05T19:55:46.789Z,13.60
2018-06-05T19:58:14.777Z,15.32
2018-06-05T20:00:42.824Z,14.63
2018-06-05T20:03:10.864Z,13.30
2018-06-05T20:05:38.920Z,13.58
2018-06-05T20:08:07.045Z,12.78
2018-06-05T20:10:35.109Z,14.75
2018-06-05T20:13:03.148Z,20.82
2018-06-05T20:15:31.200Z,15.20
2018-06-05T20:17:59.253Z,15.20
2018-06-05T20:20:27.417Z,14.80
2018-06-05T20:22:55.493Z,17.60
2018-06-05T20:25:23.601Z,13.08
2018-06-05T20:27:51.596Z,13.48
2018-06-05T20:30:19.697Z,15.08
2018-06-05T20:32:47.740Z,16.73
2018-06-05T20:35:15.592Z,14.50
2018-06-05T20:37:43.635Z,16.80
2018-06-05T20:40:11.697Z,18.62
2018-06-05T20:42:39.744Z,18.42
2018-06-05T20:45:07.801Z,15.38
2018-06-05T20:47:35.844Z,17.32
2018-06-05T20:50:03.900Z,21.05
2018-06-05T20:52:31.961Z,17.17
2018-06-05T20:55:00.076Z,15.18
2018-06-05T20:57:28.125Z,18.70
2018-06-05T20:59:56.177Z,18.57
2018-06-05T21:02:24.229Z,21.57
2018-06-05T21:04:52.281Z,16.52
2018-06-05T21:07:20.336Z,32.65
2018-06-05T21:09:48.376Z,18.12
2018-06-05T21:12:16.464Z,18.00
2018-06-05T21:14:44.312Z,18.48
2018-06-05T21:17:12.381Z,20.32
2018-06-05T21:19:40.424Z,21.42
2018-06-05T21:22:08.477Z,21.12
2018-06-05T21:24:36.521Z,19.67
2018-06-05T21:27:04.775Z,19.30
2018-06-05T21:29:33.004Z,23.73
2018-06-05T21:32:01.089Z,19.17
2018-06-05T21:34:29.177Z,19.70
2018-06-05T21:36:57.245Z,24.02
2018-06-05T21:39:25.341Z,25.25
2018-06-05T21:41:53.244Z,21.25
2018-06-05T21:44:21.319Z,23.67
2018-06-05T21:46:49.392Z,20.15
2018-06-05T21:49:17.461Z,18.95
2018-06-05T21:51:45.539Z,20.40
2018-06-05T21:54:13.600Z,22.55
2018-06-05T21:56:41.677Z,23.27
2018-06-05T21:59:09.744Z,22.70
2018-06-05T22:01:37.821Z,19.85
2018-06-05T22:04:05.910Z,23.32
2018-06-05T22:06:33.978Z,22.00
2018-06-05T22:09:02.047Z,24.77
2018-06-05T22:11:30.125Z,22.80
2018-06-05T22:13:58.192Z,25.62
2018-06-05T22:16:26.264Z,21.42
2018-06-05T22:18:54.332Z,28.55
2018-06-05T22:21:22.400Z,26.35
2018-06-05T22:23:50.474Z,24.77
2018-06-05T22:26:18.544Z,22.30
2018-06-05T22:28:46.613Z,23.22
2018-06-05T22:31:14.692Z,21.55
2018-06-05T22:33:42.784Z,19.40
2018-06-05T22:36:10.840Z,31.23
2018-06-05T22:38:38.920Z,24.98
2018-06-05T22:41:06.988Z,22.00
2018-06-05T22:43:35.057Z,25.30
2018-06-05T22:46:03.149Z,20.40
2018-06-05T22:48:31.221Z,19.75
2018-06-05T22:50:59.296Z,24.18
2018-06-05T22:53:27.373Z,22.65
2018-06-05T22:55:55.445Z,25.05
2018-06-05T22:58:23.508Z,29.60
2018-06-05T23:00:51.581Z,20.80
2018-06-05T23:03:19.652Z,27.02
2018-06-05T23:05:47.721Z,24.75
2018-06-05T23:08:15.792Z,21.95
2018-06-05T23:10:43.856Z,25.50
2018-06-05T23:13:11.948Z,24.63
2018-06-05T23:15:40.004Z,23.80
2018-06-05T23:18:08.072Z,24.63
2018-06-05T23:20:36.138Z,22.70
2018-06-05T23:23:04.200Z,23.32
2018-06-05T23:25:32.267Z,19.37
2018-06-05T23:28:00.344Z,20.68
2018-06-05T23:30:28.412Z,22.35
2018-06-05T23:32:56.457Z,29.48
2018-06-05T23:35:24.505Z,20.10
2018-06-05T23:37:52.636Z,24.45
2018-06-05T23:40:20.681Z,21.02
2018-06-05T23:42:48.736Z,25.90
2018-06-05T23:45:16.796Z,27.77
2018-06-05T23:47:44.841Z,20.15
2018-06-05T23:50:12.888Z,28.87
2018-06-05T23:52:40.936Z,24.87
2018-06-05T23:55:08.983Z,21.57
2018-06-05T23:57:37.041Z,24.75
